createdAt,value
2018-08-22T00:00:44.079Z,11.50
2018-08-22T00:03:12.562Z,11.55
2018-08-22T00:05:41.154Z,11.59
2018-08-22T00:08:09.862Z,11.61
2018-08-22T00:10:38.492Z,11.60
2018-08-22T00:13:07.091Z,11.60
2018-08-22T00:15:35.659Z,11.60
2018-08-22T00:18:04.291Z,11.59
2018-08-22T00:20:38.558Z,11.58
2018-08-22T00:23:07.051Z,11.60
2018-08-22T00:25:35.663Z,11.62
2018-08-22T00:28:04.363Z,11.62
2018-08-22T00:30:32.931Z,11.61
2018-08-22T00:33:01.502Z,11.61
2018-08-22T00:35:31.011Z,11.60
2018-08-22T00:37:59.605Z,11.62
2018-08-22T00:40:28.166Z,11.65
2018-08-22T00:42:56.738Z,11.68
2018-08-22T00:45:25.519Z,11.71
2018-08-22T00:47:54.151Z,11.75
2018-08-22T00:50:23.106Z,11.82
2018-08-22T00:52:51.672Z,11.88
2018-08-22T00:55:20.359Z,11.94
2018-08-22T00:57:49.255Z,12.03
2018-08-22T01:00:17.823Z,12.08
2018-08-22T01:02:46.414Z,12.16
2018-08-22T01:05:15.100Z,12.23
2018-08-22T01:07:43.599Z,12.31
2018-08-22T01:10:12.212Z,12.39
2018-08-22T01:12:40.799Z,12.44
2018-08-22T01:15:09.553Z,12.51
2018-08-22T01:17:38.138Z,12.56
2018-08-22T01:20:07.516Z,12.64
2018-08-22T01:22:36.406Z,12.68
2018-08-22T01:25:05.367Z,12.73
2018-08-22T01:27:33.978Z,12.74
2018-08-22T01:30:02.567Z,12.82
2018-08-22T01:32:31.251Z,12.85
2018-08-22T01:34:59.937Z,12.89
2018-08-22T01:37:28.452Z,12.94
2018-08-22T01:39:57.100Z,12.98
2018-08-22T01:42:25.629Z,13.00
2018-08-22T01:44:54.131Z,13.05
2018-08-22T01:47:22.686Z,13.07
2018-08-22T01:49:51.251Z,13.11
2018-08-22T01:52:19.799Z,13.13
2018-08-22T01:54:48.495Z,13.16
2018-08-22T01:57:17.028Z,13.12
2018-08-22T01:59:45.660Z,13.23
2018-08-22T02:02:14.182Z,13.28
2018-08-22T02:04:42.666Z,13.33
2018-08-22T02:07:11.311Z,13.36
2018-08-22T02:09:39.801Z,13.41
2018-08-22T02:12:08.356Z,13.45
2018-08-22T02:14:36.943Z,13.49
2018-08-22T02:17:05.599Z,13.53
2018-08-22T02:19:34.144Z,13.57
2018-08-22T02:22:02.743Z,13.61
2018-08-22T02:24:31.347Z,13.63
2018-08-22T02:26:59.995Z,13.65
2018-08-22T02:29:28.514Z,13.68
2018-08-22T02:31:57.141Z,13.68
2018-08-22T02:34:25.623Z,13.71
2018-08-22T02:36:54.171Z,13.73
2018-08-22T02:39:22.695Z,13.76
2018-08-22T02:41:51.323Z,13.77
2018-08-22T02:44:20.027Z,13.80
2018-08-22T02:46:48.633Z,13.82
2018-08-22T02:49:17.171Z,13.87
2018-08-22T02:51:45.686Z,13.90
2018-08-22T02:54:14.179Z,13.92
2018-08-22T02:56:42.698Z,13.96
2018-08-22T02:59:11.551Z,13.98
2018-08-22T03:01:40.152Z,13.99
2018-08-22T03:04:08.742Z,14.01
2018-08-22T03:06:37.399Z,14.02
2018-08-22T03:09:07.967Z,14.04
2018-08-22T03:11:36.663Z,14.05
2018-08-22T03:14:05.477Z,14.10
2018-08-22T03:16:33.985Z,14.11
2018-08-22T03:19:02.527Z,14.14
2018-08-22T03:21:31.106Z,14.17
2018-08-22T03:23:59.591Z,14.22
2018-08-22T03:26:28.198Z,14.25
2018-08-22T03:28:56.707Z,14.27
2018-08-22T03:31:26.094Z,14.32
2018-08-22T03:33:55.274Z,14.34
2018-08-22T03:36:24.135Z,14.39
2018-08-22T03:38:52.690Z,14.43
2018-08-22T03:41:21.335Z,14.49
2018-08-22T03:43:49.915Z,14.52
2018-08-22T03:46:18.519Z,14.57
2018-08-22T03:48:47.462Z,14.60
2018-08-22T03:51:16.058Z,14.63
2018-08-22T03:53:44.804Z,14.67
2018-08-22T03:56:13.460Z,14.68
2018-08-22T03:58:42.043Z,14.72
2018-08-22T04:01:10.728Z,14.74
2018-08-22T04:03:39.240Z,14.76
2018-08-22T04:06:08.610Z,14.79
2018-08-22T04:08:37.164Z,14.82
2018-08-22T04:11:05.935Z,14.85
2018-08-22T04:13:34.563Z,14.91
2018-08-22T04:16:03.146Z,14.94
2018-08-22T04:18:31.674Z,14.99
2018-08-22T04:21:00.314Z,15.04
2018-08-22T04:23:28.896Z,15.07
2018-08-22T04:25:58.003Z,15.11
2018-08-22T04:28:26.677Z,15.17
2018-08-22T04:30:55.308Z,15.22
2018-08-22T04:33:24.364Z,15.27
2018-08-22T04:35:52.958Z,15.30
2018-08-22T04:38:21.621Z,15.29
2018-08-22T04:40:50.138Z,15.31
2018-08-22T04:43:18.707Z,15.34
2018-08-22T04:45:47.370Z,15.39
2018-08-22T04:48:15.897Z,15.43
2018-08-22T04:50:44.456Z,15.48
2018-08-22T04:53:13.091Z,15.53
2018-08-22T04:55:41.703Z,15.58
2018-08-22T04:58:10.316Z,15.63
2018-08-22T05:00:38.871Z,15.66
2018-08-22T05:03:07.384Z,15.70
2018-08-22T05:05:35.958Z,15.74
2018-08-22T05:08:04.617Z,15.76
2018-08-22T05:10:33.428Z,15.82
2018-08-22T05:13:02.041Z,15.87
2018-08-22T05:15:30.672Z,15.92
2018-08-22T05:17:59.299Z,15.98
2018-08-22T05:20:27.845Z,16.02
2018-08-22T05:22:57.467Z,16.06
2018-08-22T05:25:26.166Z,16.10
2018-08-22T05:27:54.817Z,16.13
2018-08-22T05:30:23.501Z,16.15
2018-08-22T05:32:52.084Z,16.16
2018-08-22T05:35:20.872Z,16.19
2018-08-22T05:37:49.558Z,16.19
2018-08-22T05:40:18.195Z,16.20
2018-08-22T05:42:47.654Z,16.22
2018-08-22T05:45:17.047Z,16.25
2018-08-22T05:47:46.155Z,16.27
2018-08-22T05:50:14.826Z,16.32
2018-08-22T05:52:43.639Z,16.36
2018-08-22T05:55:12.219Z,16.40
2018-08-22T05:57:40.852Z,16.45
2018-08-22T06:00:09.554Z,16.51
2018-08-22T06:02:38.082Z,16.58
2018-08-22T06:05:07.385Z,16.63
2018-08-22T06:07:36.040Z,16.69
2018-08-22T06:10:04.869Z,16.79
2018-08-22T06:12:33.609Z,16.87
2018-08-22T06:15:02.207Z,16.96
2018-08-22T06:17:30.773Z,17.05
2018-08-22T06:19:59.365Z,17.14
2018-08-22T06:22:28.114Z,17.24
2018-08-22T06:24:57.855Z,17.34
2018-08-22T06:27:30.367Z,17.44
2018-08-22T06:30:00.310Z,17.56
2018-08-22T06:32:29.803Z,17.66
2018-08-22T06:34:58.738Z,17.79
2018-08-22T06:37:29.083Z,17.84
2018-08-22T06:39:59.119Z,17.97
2018-08-22T06:42:27.667Z,18.01
2018-08-22T06:44:56.458Z,18.05
2018-08-22T06:47:24.975Z,18.08
2018-08-22T06:49:53.518Z,18.14
2018-08-22T06:52:22.905Z,18.19
2018-08-22T06:54:51.497Z,18.22
2018-08-22T06:57:20.007Z,18.26
2018-08-22T06:59:49.115Z,18.30
2018-08-22T07:02:17.605Z,18.36
2018-08-22T07:04:46.212Z,18.43
2018-08-22T07:07:15.675Z,18.50
2018-08-22T07:09:44.211Z,18.61
2018-08-22T07:12:12.807Z,18.67
2018-08-22T07:14:42.006Z,18.71
2018-08-22T07:17:10.475Z,18.73
2018-08-22T07:19:38.998Z,18.75
2018-08-22T07:22:07.661Z,18.75
2018-08-22T07:24:36.285Z,18.73
2018-08-22T07:27:04.924Z,18.70
2018-08-22T07:29:33.604Z,18.66
2018-08-22T07:32:02.116Z,18.64
2018-08-22T07:34:30.760Z,18.62
2018-08-22T07:36:59.354Z,18.55
2018-08-22T07:39:27.903Z,18.50
2018-08-22T07:41:56.844Z,18.43
2018-08-22T07:44:30.745Z,18.40
2018-08-22T07:47:03.513Z,18.49
2018-08-22T07:49:35.186Z,18.54
2018-08-22T07:52:06.875Z,18.60
2018-08-22T07:54:43.114Z,18.65
2018-08-22T07:57:19.516Z,18.68
2018-08-22T07:59:54.855Z,18.73
2018-08-22T08:02:31.377Z,18.75
2018-08-22T08:05:00.563Z,18.79
2018-08-22T08:07:35.609Z,18.84
2018-08-22T08:10:07.527Z,18.93
2018-08-22T08:12:41.340Z,19.03
2018-08-22T08:15:12.481Z,19.06
2018-08-22T08:17:44.203Z,19.07
2018-08-22T08:20:12.851Z,19.07
2018-08-22T08:22:41.381Z,19.08
2018-08-22T08:25:10.113Z,19.16
2018-08-22T08:27:38.680Z,19.27
2018-08-22T08:30:08.151Z,19.30
2018-08-22T08:32:38.811Z,19.18
2018-08-22T08:35:09.229Z,19.10
2018-08-22T08:37:38.455Z,19.03
2018-08-22T08:40:09.775Z,18.97
2018-08-22T08:42:42.136Z,18.96
2018-08-22T08:45:13.932Z,18.92
2018-08-22T08:47:50.715Z,18.87
2018-08-22T08:50:25.753Z,18.83
2018-08-22T08:52:55.227Z,18.80
2018-08-22T08:55:35.296Z,18.82
2018-08-22T08:58:19.945Z,18.82
2018-08-22T09:00:48.642Z,18.83
2018-08-22T09:03:18.218Z,18.90
2018-08-22T09:05:49.189Z,18.99
2018-08-22T09:08:18.774Z,19.05
2018-08-22T09:10:48.162Z,19.10
2018-08-22T09:13:20.329Z,19.15
2018-08-22T09:15:50.233Z,19.16
2018-08-22T09:18:19.975Z,19.10
2018-08-22T09:20:50.639Z,19.09
2018-08-22T09:23:22.383Z,19.09
2018-08-22T09:25:51.084Z,19.09
2018-08-22T09:28:20.445Z,19.13
2018-08-22T09:30:52.191Z,19.18
2018-08-22T09:33:27.570Z,19.21
2018-08-22T09:35:57.907Z,19.24
2018-08-22T09:38:30.051Z,19.26
2018-08-22T09:41:01.603Z,19.39
2018-08-22T09:43:33.778Z,19.50
2018-08-22T09:46:05.125Z,19.67
2018-08-22T09:48:36.620Z,19.78
2018-08-22T09:51:07.097Z,19.81
2018-08-22T09:53:38.479Z,19.88
2018-08-22T09:56:08.780Z,19.89
2018-08-22T09:58:43.212Z,19.85
2018-08-22T10:01:18.385Z,19.85
2018-08-22T10:03:57.393Z,19.83
2018-08-22T10:06:43.972Z,19.82
2018-08-22T10:09:15.688Z,19.72
2018-08-22T10:11:47.177Z,19.69
2018-08-22T10:14:17.198Z,19.69
2018-08-22T10:16:47.238Z,19.69
2018-08-22T10:19:17.624Z,19.72
2018-08-22T10:21:47.666Z,19.77
2018-08-22T10:24:17.046Z,19.81
2018-08-22T10:26:47.891Z,19.91
2018-08-22T10:29:19.929Z,19.95
2018-08-22T10:31:49.858Z,20.01
2018-08-22T10:34:19.497Z,20.04
2018-08-22T10:36:49.792Z,20.14
2018-08-22T10:39:21.487Z,20.24
2018-08-22T10:41:53.447Z,20.34
2018-08-22T10:44:24.996Z,20.53
2018-08-22T10:49:42.116Z,20.98
2018-08-22T10:52:17.043Z,21.04
2018-08-22T10:54:46.221Z,21.09
2018-08-22T10:57:17.158Z,21.14
2018-08-22T10:59:47.392Z,21.11
2018-08-22T11:02:19.607Z,21.18
2018-08-22T11:04:51.526Z,21.28
2018-08-22T11:07:21.588Z,21.41
2018-08-22T11:09:52.896Z,21.43
2018-08-22T11:12:21.560Z,21.48
2018-08-22T11:14:50.758Z,21.59
2018-08-22T11:17:20.099Z,21.67
2018-08-22T11:19:48.748Z,21.60
2018-08-22T11:22:28.397Z,21.61
2018-08-22T11:25:08.275Z,21.75
2018-08-22T11:27:48.143Z,21.83
2018-08-22T11:30:29.050Z,21.84
2018-08-22T11:33:13.201Z,21.80
2018-08-22T11:35:44.734Z,21.76
2018-08-22T11:38:15.592Z,21.75
2018-08-22T11:40:45.838Z,21.88
2018-08-22T11:43:18.855Z,21.93
2018-08-22T11:45:49.936Z,22.07
2018-08-22T11:48:20.844Z,22.08
2018-08-22T11:50:49.515Z,22.11
2018-08-22T11:53:20.263Z,22.22
2018-08-22T11:55:51.113Z,22.29
2018-08-22T11:58:25.265Z,22.27
2018-08-22T12:00:57.440Z,22.18
2018-08-22T12:03:26.102Z,22.19
2018-08-22T12:05:54.777Z,22.24
2018-08-22T12:08:23.279Z,22.34
2018-08-22T12:10:51.875Z,22.32
2018-08-22T12:13:20.526Z,22.34
2018-08-22T12:15:49.211Z,22.46
2018-08-22T12:18:17.793Z,22.55
2018-08-22T12:20:46.424Z,22.66
2018-08-22T12:23:15.266Z,22.61
2018-08-22T12:25:43.748Z,22.63
2018-08-22T12:28:12.367Z,22.72
2018-08-22T12:30:41.124Z,22.80
2018-08-22T12:33:09.769Z,22.78
2018-08-22T12:35:38.302Z,22.69
2018-08-22T12:38:06.903Z,22.72
2018-08-22T12:40:35.455Z,22.68
2018-08-22T12:43:03.977Z,22.70
2018-08-22T12:45:32.672Z,22.75
2018-08-22T12:48:01.447Z,22.91
2018-08-22T12:50:30.053Z,22.94
2018-08-22T12:52:59.039Z,22.89
2018-08-22T12:55:27.572Z,22.85
2018-08-22T12:57:56.249Z,22.90
2018-08-22T13:00:24.875Z,22.90
2018-08-22T13:02:53.476Z,22.87
2018-08-22T13:05:22.815Z,22.85
2018-08-22T13:07:51.526Z,22.82
2018-08-22T13:10:20.186Z,22.88
2018-08-22T13:12:48.812Z,22.92
2018-08-22T13:15:17.437Z,22.92
2018-08-22T13:17:46.350Z,22.82
2018-08-22T13:20:14.971Z,22.80
2018-08-22T13:22:43.566Z,22.91
2018-08-22T13:25:12.266Z,22.92
2018-08-22T13:27:41.422Z,22.99
2018-08-22T13:30:09.975Z,23.09
2018-08-22T13:32:38.663Z,23.11
2018-08-22T13:35:07.519Z,23.06
2018-08-22T13:37:36.235Z,23.02
2018-08-22T13:40:04.950Z,22.97
2018-08-22T13:42:33.555Z,22.83
2018-08-22T13:45:02.158Z,22.81
2018-08-22T13:47:30.735Z,22.72
2018-08-22T13:49:59.356Z,22.70
2018-08-22T13:52:27.944Z,22.72
2018-08-22T13:54:56.623Z,22.68
2018-08-22T13:57:26.127Z,22.66
2018-08-22T13:59:54.710Z,22.62
2018-08-22T14:02:23.395Z,22.62
2018-08-22T14:04:52.846Z,22.53
2018-08-22T14:07:21.427Z,22.48
2018-08-22T14:09:50.679Z,22.51
2018-08-22T14:12:19.268Z,22.46
2018-08-22T14:14:48.051Z,22.43
2018-08-22T14:17:16.659Z,22.45
2018-08-22T14:19:47.337Z,22.41
2018-08-22T14:22:16.430Z,22.45
2018-08-22T14:24:45.851Z,22.45
2018-08-22T14:27:14.399Z,22.48
2018-08-22T14:29:42.934Z,22.42
2018-08-22T14:32:11.438Z,22.41
2018-08-22T14:34:39.992Z,22.31
2018-08-22T14:37:08.635Z,22.20
2018-08-22T14:39:37.362Z,22.03
2018-08-22T14:42:05.997Z,22.00
2018-08-22T14:44:34.656Z,21.97
2018-08-22T14:47:03.317Z,21.97
2018-08-22T14:49:31.859Z,21.98
2018-08-22T14:54:43.706Z,21.97
2018-08-22T14:57:12.307Z,21.94
2018-08-22T14:59:41.181Z,21.90
2018-08-22T15:02:10.377Z,21.79
2018-08-22T15:04:39.063Z,21.76
2018-08-22T15:07:07.749Z,21.72
2018-08-22T15:09:36.803Z,21.69
2018-08-22T15:12:05.575Z,21.65
2018-08-22T15:14:34.119Z,21.63
2018-08-22T15:17:02.700Z,21.64
2018-08-22T15:19:31.362Z,21.56
2018-08-22T15:22:00.539Z,21.62
2018-08-22T15:24:29.106Z,21.62
2018-08-22T15:26:57.740Z,21.57
2018-08-22T15:29:26.383Z,21.54
2018-08-22T15:31:55.009Z,21.51
2018-08-22T15:34:24.023Z,21.49
2018-08-22T15:36:52.649Z,21.47
2018-08-22T15:39:21.146Z,21.46
2018-08-22T15:41:49.892Z,21.44
2018-08-22T15:44:18.569Z,21.41
2018-08-22T15:46:47.811Z,21.44
2018-08-22T15:49:16.327Z,21.46
2018-08-22T15:51:44.901Z,21.49
2018-08-22T15:54:15.102Z,21.51
2018-08-22T15:56:43.847Z,21.54
2018-08-22T15:59:13.366Z,21.54
2018-08-22T16:01:41.998Z,21.53
2018-08-22T16:04:11.197Z,21.53
2018-08-22T16:06:39.882Z,21.54
2018-08-22T16:09:15.995Z,21.51
2018-08-22T16:11:44.931Z,21.51
2018-08-22T16:14:13.533Z,21.52
2018-08-22T16:16:42.124Z,21.49
2018-08-22T16:19:10.883Z,21.45
2018-08-22T16:21:39.409Z,21.44
2018-08-22T16:24:07.684Z,21.47
2018-08-22T16:26:36.167Z,21.54
2018-08-22T16:29:04.751Z,21.55
2018-08-22T16:31:38.714Z,21.56
2018-08-22T16:34:10.109Z,21.53
2018-08-22T16:36:40.200Z,21.52
2018-08-22T16:39:09.637Z,21.51
2018-08-22T16:41:38.385Z,21.48
2018-08-22T16:44:07.158Z,21.51
2018-08-22T16:46:35.852Z,21.47
2018-08-22T16:49:04.467Z,21.47
2018-08-22T16:51:33.057Z,21.47
2018-08-22T16:54:06.915Z,21.45
2018-08-22T16:56:35.809Z,21.45
2018-08-22T16:59:09.106Z,21.45
2018-08-22T17:01:39.563Z,21.48
2018-08-22T17:04:08.412Z,21.48
2018-08-22T17:06:37.101Z,21.47
2018-08-22T17:09:08.803Z,21.46
2018-08-22T17:11:37.338Z,21.44
2018-08-22T17:14:06.596Z,21.42
2018-08-22T17:16:36.067Z,21.36
2018-08-22T17:19:05.037Z,21.34
2018-08-22T17:21:34.332Z,21.33
2018-08-22T17:24:03.020Z,21.28
2018-08-22T17:26:32.181Z,21.22
2018-08-22T17:29:01.263Z,21.20
2018-08-22T17:31:30.819Z,21.17
2018-08-22T17:34:00.731Z,21.13
2018-08-22T17:36:29.379Z,21.13
2018-08-22T17:39:12.753Z,21.11
2018-08-22T17:41:41.428Z,21.11
2018-08-22T17:44:14.540Z,21.06
2018-08-22T17:46:48.911Z,21.06
2018-08-22T17:49:17.678Z,21.05
2018-08-22T17:52:10.270Z,21.00
2018-08-22T17:54:39.570Z,20.99
2018-08-22T17:57:15.723Z,20.95
2018-08-22T17:59:45.310Z,20.94
2018-08-22T18:02:14.023Z,20.93
2018-08-22T18:04:51.883Z,20.92
2018-08-22T18:07:20.408Z,20.86
2018-08-22T18:09:50.017Z,20.81
2018-08-22T18:12:19.594Z,20.80
2018-08-22T18:14:48.101Z,20.79
2018-08-22T18:17:19.341Z,20.77
2018-08-22T18:19:49.395Z,20.77
2018-08-22T18:22:17.951Z,20.79
2018-08-22T18:24:51.447Z,20.79
2018-08-22T18:27:20.130Z,20.79
2018-08-22T18:29:48.708Z,20.77
2018-08-22T18:32:17.494Z,20.73
2018-08-22T18:34:58.785Z,20.72
2018-08-22T18:37:28.987Z,20.70
2018-08-22T18:40:10.607Z,20.69
2018-08-22T18:42:39.781Z,20.67
2018-08-22T18:45:08.671Z,20.68
2018-08-22T18:47:37.943Z,20.66
2018-08-22T18:50:06.810Z,20.64
2018-08-22T18:52:35.551Z,20.63
2018-08-22T18:55:04.316Z,20.55
2018-08-22T18:57:32.977Z,20.53
2018-08-22T19:00:04.643Z,20.52
2018-08-22T19:02:33.670Z,20.50
2018-08-22T19:05:20.235Z,20.50
2018-08-22T19:07:59.343Z,20.51
2018-08-22T19:10:31.765Z,20.51
2018-08-22T19:13:16.128Z,20.52
2018-08-22T19:15:50.416Z,20.52
2018-08-22T19:18:19.387Z,20.50
2018-08-22T19:20:48.379Z,20.45
2018-08-22T19:23:17.091Z,20.39
2018-08-22T19:25:47.130Z,20.35
2018-08-22T19:28:15.659Z,20.33
2018-08-22T19:30:44.227Z,20.31
2018-08-22T19:33:14.838Z,20.29
2018-08-22T19:35:43.974Z,20.22
2018-08-22T19:38:14.711Z,20.21
2018-08-22T19:40:43.441Z,20.20
2018-08-22T19:43:12.107Z,20.21
2018-08-22T19:45:40.813Z,20.19
2018-08-22T19:48:09.562Z,20.16
2018-08-22T19:50:38.131Z,20.12
2018-08-22T19:53:07.066Z,20.11
2018-08-22T19:55:36.631Z,20.08
2018-08-22T19:58:05.503Z,20.06
2018-08-22T20:00:34.083Z,20.04
2018-08-22T20:03:02.607Z,19.99
2018-08-22T20:05:50.985Z,19.98
2018-08-22T20:08:23.914Z,19.97
2018-08-22T20:10:52.519Z,19.97
2018-08-22T20:13:21.046Z,19.96
2018-08-22T20:15:49.616Z,19.95
2018-08-22T20:18:18.939Z,19.93
2018-08-22T20:20:48.118Z,19.88
2018-08-22T20:23:16.937Z,19.87
2018-08-22T20:25:45.480Z,19.86
2018-08-22T20:28:14.067Z,19.84
2018-08-22T20:30:42.559Z,19.83
2018-08-22T20:33:11.904Z,19.82
2018-08-22T20:35:42.491Z,19.82
2018-08-22T20:38:12.697Z,19.82
2018-08-22T20:40:41.327Z,19.83
2018-08-22T20:43:16.971Z,19.87
2018-08-22T20:45:45.535Z,19.91
2018-08-22T20:48:15.095Z,19.92
2018-08-22T20:50:44.994Z,19.96
2018-08-22T20:53:16.183Z,19.97
2018-08-22T20:55:44.902Z,19.98
2018-08-22T20:58:18.871Z,19.99
2018-08-22T21:00:47.517Z,19.97
2018-08-22T21:03:18.855Z,19.97
2018-08-22T21:05:47.586Z,19.95
2018-08-22T21:08:16.145Z,19.94
2018-08-22T21:10:44.699Z,19.95
2018-08-22T21:13:18.354Z,19.95
2018-08-22T21:15:47.142Z,19.95
2018-08-22T21:18:15.622Z,19.89
2018-08-22T21:20:44.154Z,19.96
2018-08-22T21:23:12.729Z,19.96
2018-08-22T21:25:42.803Z,19.98
2018-08-22T21:28:11.435Z,19.96
2018-08-22T21:30:43.664Z,19.95
2018-08-22T21:33:12.396Z,19.94
2018-08-22T21:35:41.026Z,19.94
2018-08-22T21:38:13.672Z,19.93
2018-08-22T21:40:42.189Z,19.91
2018-08-22T21:43:13.102Z,19.90
2018-08-22T21:45:41.913Z,19.86
2018-08-22T21:48:17.390Z,19.90
2018-08-22T21:50:46.551Z,19.92
2018-08-22T21:53:15.237Z,19.92
2018-08-22T21:55:45.668Z,19.92
2018-08-22T21:58:15.166Z,19.91
2018-08-22T22:00:43.738Z,19.90
2018-08-22T22:03:13.257Z,19.89
2018-08-22T22:05:44.643Z,19.89
2018-08-22T22:08:13.211Z,19.87
2018-08-22T22:10:42.078Z,19.86
2018-08-22T22:13:11.374Z,19.86
2018-08-22T22:15:42.104Z,19.85
2018-08-22T22:18:11.051Z,19.83
2018-08-22T22:20:40.049Z,19.81
2018-08-22T22:23:08.723Z,19.78
2018-08-22T22:25:37.300Z,19.75
2018-08-22T22:28:05.950Z,19.73
2018-08-22T22:30:34.735Z,19.69
2018-08-22T22:33:04.034Z,19.68
2018-08-22T22:35:37.578Z,19.69
2018-08-22T22:38:12.765Z,19.67
2018-08-22T22:40:41.659Z,19.69
2018-08-22T22:43:12.517Z,19.69
2018-08-22T22:45:41.126Z,19.70
2018-08-22T22:48:09.812Z,19.71
2018-08-22T22:50:38.331Z,19.69
2018-08-22T22:53:07.652Z,19.66
2018-08-22T22:55:36.170Z,19.65
2018-08-22T22:58:05.633Z,19.65
2018-08-22T23:00:34.214Z,19.65
2018-08-22T23:03:07.302Z,19.61
2018-08-22T23:05:35.987Z,19.57
2018-08-22T23:08:05.023Z,19.53
2018-08-22T23:10:33.669Z,19.52
2018-08-22T23:13:02.307Z,19.51
2018-08-22T23:15:31.616Z,19.50
2018-08-22T23:18:02.079Z,19.49
2018-08-22T23:20:34.943Z,19.48
2018-08-22T23:23:04.570Z,19.49
2018-08-22T23:25:34.070Z,19.49
2018-08-22T23:28:03.265Z,19.50
2018-08-22T23:30:35.946Z,19.46
2018-08-22T23:33:04.787Z,19.52
2018-08-22T23:35:34.703Z,19.51
2018-08-22T23:38:04.628Z,19.52
2018-08-22T23:40:34.587Z,19.53
2018-08-22T23:43:03.087Z,19.54
2018-08-22T23:45:31.847Z,19.52
2018-08-22T23:48:00.458Z,19.54
2018-08-22T23:50:38.245Z,19.54
2018-08-22T23:53:06.915Z,19.54
2018-08-22T23:55:35.510Z,19.53
2018-08-22T23:58:04.182Z,19.52
